Time;durP1;ratioP1;P1;durP2;ratioP2;P2;SDS_P1;SDS_P2;PMS_P1;PMS_P2;Temp;Humidity;BMP_temperature;BMP_pressure;BME280_temperature;BME280_humidity;BME280_pressure;Samples;Min_cycle;Max_cycle;Signal;HPM_P1;HPM_P2
2022/09/15 00:01:25;;;;;;;;;;;;;;;;;;5066348;28;45816;-76
2022/09/15 00:03:52;;;;;;;;;;;;;;;;;;5051225;28;45188;-76
2022/09/15 00:06:19;;;;;;;;;;;;;;;;;;5055332;28;48415;-77
2022/09/15 00:08:45;;;;;;;;;;;;;;;;;;5048706;28;42466;-76
2022/09/15 00:11:11;;;;;;;;;;;;;;;;;;5064933;28;46334;-76
2022/09/15 00:13:37;;;;;;;;;;;;;;;;;;5031158;28;48295;-76
2022/09/15 00:16:03;;;;;;;;;;;;;;;;;;5046490;28;45130;-77
2022/09/15 00:18:30;;;;;;;;;;;;;;;;;;5051429;28;46726;-76
2022/09/15 00:20:56;;;;;;;;;;;;;;;;;;5051323;28;47079;-76
2022/09/15 00:23:22;;;;;;;;;;;;;;;;;;5066583;28;46035;-76
2022/09/15 00:25:49;;;;;;;;;;;;;;;;;;5067050;28;47755;-76
2022/09/15 00:28:16;;;;;;;;;;;;;;;;;;5046971;28;35599;-76
2022/09/15 00:30:42;;;;;;;;;;;;;;;;;;5050834;28;46094;-76
2022/09/15 00:33:08;;;;;;;;;;;;;;;;;;5068813;28;47923;-76
2022/09/15 00:35:34;;;;;;;;;;;;;;;;;;5059264;28;43897;-76
2022/09/15 00:38:00;;;;;;;;;;;;;;;;;;5054569;28;47761;-76
2022/09/15 00:40:27;;;;;;;;;;;;;;;;;;5068071;28;45836;-76
2022/09/15 00:42:53;;;;;;;;;;;;;;;;;;5066547;28;42944;-76
2022/09/15 00:45:19;;;;;;;;;;;;;;;;;;5047612;28;45914;-76
2022/09/15 00:47:46;;;;;;;;;;;;;;;;;;5047152;28;48296;-76
2022/09/15 00:50:12;;;;;;;;;;;;;;;;;;5048826;28;45371;-76
2022/09/15 00:52:38;;;;;;;;;;;;;;;;;;5048534;28;47623;-76
2022/09/15 00:55:04;;;;;;;;;;;;;;;;;;5050643;28;42495;-76
2022/09/15 00:57:30;;;;;;;;;;;;;;;;;;5050165;28;46633;-76
2022/09/15 00:59:57;;;;;;;;;;;;;;;;;;5068086;28;47800;-76
2022/09/15 01:02:23;;;;;;;;;;;;;;;;;;5046314;28;45113;-76
2022/09/15 01:04:49;;;;;;;;;;;;;;;;;;5050113;28;45603;-76
2022/09/15 01:07:18;;;;;;;;;;;;;;;;;;5062807;28;48497;-76
2022/09/15 01:09:45;;;;;;;;;;;;;;;;;;5049729;28;45118;-76
2022/09/15 01:12:11;;;;;;;;;;;;;;;;;;5066252;28;48800;-76
2022/09/15 01:14:37;;;;;;;;;;;;;;;;;;5049924;28;42969;-76
2022/09/15 01:17:05;;;;;;;;;;;;;;;;;;5049639;28;47414;-76
2022/09/15 01:19:36;;;;;;;;;;;;;;;;;;5049374;28;48468;-76
2022/09/15 01:22:02;;;;;;;;;;;;;;;;;;5063951;28;42051;-76
2022/09/15 01:24:28;;;;;;;;;;;;;;;;;;5049466;28;47838;-76
2022/09/15 01:26:54;;;;;;;;;;;;;;;;;;5067580;28;47928;-76
2022/09/15 01:29:20;;;;;;;;;;;;;;;;;;5067656;28;45092;-76
2022/09/15 01:34:32;;;;;;;;;;;;;;;;;;5067770;28;45249;-76
2022/09/15 01:36:58;;;;;;;;;;;;;;;;;;5057032;28;46651;-76
2022/09/15 01:39:24;;;;;;;;;;;;;;;;;;5036977;28;47190;-76
2022/09/15 01:41:50;;;;;;;;;;;;;;;;;;5064627;28;42259;-76
2022/09/15 01:44:16;;;;;;;;;;;;;;;;;;5048828;28;47816;-76
2022/09/15 01:46:45;;;;;;;;;;;;;;;;;;5049705;28;46118;-76
2022/09/15 01:49:14;;;;;;;;;;;;;;;;;;5067801;28;45139;-76
2022/09/15 01:51:40;;;;;;;;;;;;;;;;;;5045846;28;46578;-76
2022/09/15 01:54:06;;;;;;;;;;;;;;;;;;5050080;28;47261;-76
2022/09/15 01:56:32;;;;;;;;;;;;;;;;;;5046565;28;46700;-76
2022/09/15 01:58:58;;;;;;;;;;;;;;;;;;5049001;28;44587;-76
2022/09/15 02:01:28;;;;;;;;;;;;;;;;;;5048396;28;43569;-76
2022/09/15 02:03:54;;;;;;;;;;;;;;;;;;5045753;28;46312;-76
2022/09/15 02:06:21;;;;;;;;;;;;;;;;;;5067536;28;48292;-76
2022/09/15 02:08:47;;;;;;;;;;;;;;;;;;5067509;28;41310;-76
2022/09/15 02:11:14;;;;;;;;;;;;;;;;;;5035714;28;47175;-76
2022/09/15 02:13:41;;;;;;;;;;;;;;;;;;5065522;28;47165;-76
2022/09/15 02:16:11;;;;;;;;;;;;;;;;;;5044572;28;45060;-77
2022/09/15 02:18:37;;;;;;;;;;;;;;;;;;5047705;28;48109;-76
2022/09/15 02:21:08;;;;;;;;;;;;;;;;;;5046992;28;45034;-76
2022/09/15 02:23:34;;;;;;;;;;;;;;;;;;5049019;28;45978;-76
2022/09/15 02:26:03;;;;;;;;;;;;;;;;;;5048592;28;47299;-76
2022/09/15 02:28:30;;;;;;;;;;;;;;;;;;5061527;28;44914;-76
2022/09/15 02:30:56;;;;;;;;;;;;;;;;;;5064484;28;44973;-76
2022/09/15 02:33:23;;;;;;;;;;;;;;;;;;5049167;28;48458;-76
2022/09/15 02:35:49;;;;;;;;;;;;;;;;;;5049355;28;44054;-76
2022/09/15 02:38:15;;;;;;;;;;;;;;;;;;5067002;28;46677;-75
2022/09/15 02:40:42;;;;;;;;;;;;;;;;;;5049654;28;42494;-76
2022/09/15 02:43:08;;;;;;;;;;;;;;;;;;5048394;28;47986;-76
2022/09/15 02:45:34;;;;;;;;;;;;;;;;;;5067180;28;48417;-76
2022/09/15 02:48:01;;;;;;;;;;;;;;;;;;5048881;28;43635;-76
2022/09/15 02:50:27;;;;;;;;;;;;;;;;;;5067138;28;46670;-75
2022/09/15 02:52:53;;;;;;;;;;;;;;;;;;5048635;28;46248;-76
2022/09/15 02:55:19;;;;;;;;;;;;;;;;;;5062072;28;44947;-76
2022/09/15 02:57:46;;;;;;;;;;;;;;;;;;5067108;28;46737;-76
2022/09/15 03:00:12;;;;;;;;;;;;;;;;;;5048522;28;44056;-76
2022/09/15 03:02:38;;;;;;;;;;;;;;;;;;5050449;28;46655;-76
2022/09/15 03:05:04;;;;;;;;;;;;;;;;;;5046372;28;46205;-76
2022/09/15 03:07:31;;;;;;;;;;;;;;;;;;5029127;28;42961;-76
2022/09/15 03:09:57;;;;;;;;;;;;;;;;;;5043906;28;47061;-76
2022/09/15 03:12:23;;;;;;;;;;;;;;;;;;5064015;28;48923;-76
2022/09/15 03:14:50;;;;;;;;;;;;;;;;;;5066535;28;45001;-76
2022/09/15 03:17:16;;;;;;;;;;;;;;;;;;5063888;28;47682;-75
2022/09/15 03:19:42;;;;;;;;;;;;;;;;;;5049720;28;46338;-76
2022/09/15 03:22:09;;;;;;;;;;;;;;;;;;5049804;28;45551;-76
2022/09/15 03:24:35;;;;;;;;;;;;;;;;;;5065322;28;46258;-76
2022/09/15 03:27:02;;;;;;;;;;;;;;;;;;5049063;28;42955;-76
2022/09/15 03:29:28;;;;;;;;;;;;;;;;;;5062201;28;46628;-76
2022/09/15 03:31:54;;;;;;;;;;;;;;;;;;5065194;28;47303;-76
2022/09/15 03:34:20;;;;;;;;;;;;;;;;;;5047648;28;45094;-76
2022/09/15 03:36:46;;;;;;;;;;;;;;;;;;5044261;28;46404;-76
2022/09/15 03:39:13;;;;;;;;;;;;;;;;;;5044492;28;47105;-76
2022/09/15 03:41:39;;;;;;;;;;;;;;;;;;5047987;28;42630;-76
2022/09/15 03:44:05;;;;;;;;;;;;;;;;;;5045023;28;47326;-76
2022/09/15 03:46:31;;;;;;;;;;;;;;;;;;5065754;28;45036;-76
2022/09/15 03:48:58;;;;;;;;;;;;;;;;;;5065379;28;47731;-76
2022/09/15 03:51:24;;;;;;;;;;;;;;;;;;5047318;28;47283;-76
2022/09/15 03:53:50;;;;;;;;;;;;;;;;;;5042440;28;45011;-76
2022/09/15 03:56:18;;;;;;;;;;;;;;;;;;5046597;28;46055;-76
2022/09/15 03:58:45;;;;;;;;;;;;;;;;;;5035708;28;47203;-76
2022/09/15 04:01:11;;;;;;;;;;;;;;;;;;5045496;28;46597;-76
2022/09/15 04:03:37;;;;;;;;;;;;;;;;;;5065377;28;47713;-76
2022/09/15 04:06:10;;;;;;;;;;;;;;;;;;5048018;28;44881;-76
2022/09/15 04:08:36;;;;;;;;;;;;;;;;;;5048169;28;45523;-76
2022/09/15 04:11:02;;;;;;;;;;;;;;;;;;5043773;28;47227;-76
2022/09/15 04:13:28;;;;;;;;;;;;;;;;;;5059710;28;45187;-76
2022/09/15 04:15:56;;;;;;;;;;;;;;;;;;5064444;28;44723;-77
2022/09/15 04:18:22;;;;;;;;;;;;;;;;;;5065113;28;47182;-76
2022/09/15 04:20:48;;;;;;;;;;;;;;;;;;5064477;28;43783;-76
2022/09/15 04:23:15;;;;;;;;;;;;;;;;;;5047491;28;47671;-76
2022/09/15 04:25:41;;;;;;;;;;;;;;;;;;5045247;28;48494;-76
2022/09/15 04:28:07;;;;;;;;;;;;;;;;;;5043378;28;46726;-76
2022/09/15 04:30:35;;;;;;;;;;;;;;;;;;5050077;28;48267;-76
2022/09/15 04:33:02;;;;;;;;;;;;;;;;;;5063773;28;43916;-76
2022/09/15 04:35:28;;;;;;;;;;;;;;;;;;5061726;28;44969;-77
2022/09/15 04:37:54;;;;;;;;;;;;;;;;;;5047673;28;46566;-76
2022/09/15 04:40:20;;;;;;;;;;;;;;;;;;5046562;28;43937;-76
2022/09/15 04:42:46;;;;;;;;;;;;;;;;;;5049631;28;46611;-76
2022/09/15 04:45:13;;;;;;;;;;;;;;;;;;5032148;28;46767;-76
2022/09/15 04:47:39;;;;;;;;;;;;;;;;;;5059088;28;46648;-76
2022/09/15 04:50:05;;;;;;;;;;;;;;;;;;5068305;28;47305;-76
2022/09/15 04:52:31;;;;;;;;;;;;;;;;;;5050529;28;46208;-76
2022/09/15 04:54:57;;;;;;;;;;;;;;;;;;5050909;28;47817;-76
2022/09/15 04:57:23;;;;;;;;;;;;;;;;;;5050776;28;48379;-76
2022/09/15 04:59:50;;;;;;;;;;;;;;;;;;5048671;28;42838;-76
2022/09/15 05:02:16;;;;;;;;;;;;;;;;;;5058286;28;45309;-76
2022/09/15 05:04:42;;;;;;;;;;;;;;;;;;5069182;28;47875;-76
2022/09/15 05:07:11;;;;;;;;;;;;;;;;;;5051673;28;45134;-77
2022/09/15 05:09:37;;;;;;;;;;;;;;;;;;5050617;28;44815;-76
2022/09/15 05:12:04;;;;;;;;;;;;;;;;;;5067880;28;45132;-76
2022/09/15 05:14:30;;;;;;;;;;;;;;;;;;5050223;28;47737;-76
2022/09/15 05:16:56;;;;;;;;;;;;;;;;;;5047225;28;47180;-76
2022/09/15 05:19:23;;;;;;;;;;;;;;;;;;5046191;28;43154;-76
2022/09/15 05:21:49;;;;;;;;;;;;;;;;;;5067870;28;46736;-76
2022/09/15 05:24:15;;;;;;;;;;;;;;;;;;5065762;28;48256;-76
2022/09/15 05:26:41;;;;;;;;;;;;;;;;;;5064125;28;45143;-76
2022/09/15 05:29:07;;;;;;;;;;;;;;;;;;5066392;28;46747;-76
2022/09/15 05:31:34;;;;;;;;;;;;;;;;;;5045838;28;43961;-76
2022/09/15 05:34:00;;;;;;;;;;;;;;;;;;5044863;28;45734;-76
2022/09/15 05:36:26;;;;;;;;;;;;;;;;;;5046696;28;47902;-76
2022/09/15 05:38:54;;;;;;;;;;;;;;;;;;5047135;28;43920;-76
2022/09/15 05:41:20;;;;;;;;;;;;;;;;;;5063261;28;47807;-78
2022/09/15 05:43:46;;;;;;;;;;;;;;;;;;5054443;28;47217;-78
2022/09/15 05:46:13;;;;;;;;;;;;;;;;;;5068742;28;41837;-78
2022/09/15 05:48:39;;;;;;;;;;;;;;;;;;5060651;28;47767;-78
2022/09/15 05:51:05;;;;;;;;;;;;;;;;;;5064737;28;47205;-78
2022/09/15 05:53:31;;;;;;;;;;;;;;;;;;5068126;28;44880;-78
2022/09/15 05:55:58;;;;;;;;;;;;;;;;;;5050987;28;45026;-78
2022/09/15 05:58:24;;;;;;;;;;;;;;;;;;5075005;28;44018;-78
2022/09/15 06:00:50;;;;;;;;;;;;;;;;;;5069420;28;46611;-78
2022/09/15 06:03:16;;;;;;;;;;;;;;;;;;5074226;28;47282;-79
2022/09/15 06:05:42;;;;;;;;;;;;;;;;;;5054781;28;42828;-78
2022/09/15 06:08:09;;;;;;;;;;;;;;;;;;5054010;28;46364;-79
2022/09/15 06:10:35;;;;;;;;;;;;;;;;;;5046233;28;48359;-78
2022/09/15 06:13:01;;;;;;;;;;;;;;;;;;5058022;28;41420;-78
2022/09/15 06:15:28;;;;;;;;;;;;;;;;;;5075739;28;48822;-79
2022/09/15 06:17:57;;;;;;;;;;;;;;;;;;5074733;28;42075;-79
2022/09/15 06:20:24;;;;;;;;;;;;;;;;;;5051644;28;45669;-79
2022/09/15 06:22:50;;;;;;;;;;;;;;;;;;5050939;28;47280;-78
2022/09/15 06:25:16;;;;;;;;;;;;;;;;;;5049415;28;43501;-77
2022/09/15 06:27:43;;;;;;;;;;;;;;;;;;5065127;28;47091;-77
2022/09/15 06:30:09;;;;;;;;;;;;;;;;;;5073066;28;46742;-77
2022/09/15 06:32:35;;;;;;;;;;;;;;;;;;5058001;28;46901;-77
2022/09/15 06:35:05;;;;;;;;;;;;;;;;;;5055275;28;46722;-77
2022/09/15 06:37:32;;;;;;;;;;;;;;;;;;5046277;28;42871;-78
2022/09/15 06:39:58;;;;;;;;;;;;;;;;;;5059409;28;46003;-78
2022/09/15 06:42:24;;;;;;;;;;;;;;;;;;5055682;28;45447;-80
2022/09/15 06:44:50;;;;;;;;;;;;;;;;;;5071951;28;42459;-79
2022/09/15 06:47:16;;;;;;;;;;;;;;;;;;5075374;28;45205;-78
2022/09/15 06:49:43;;;;;;;;;;;;;;;;;;5057056;28;48865;-79
2022/09/15 06:52:09;;;;;;;;;;;;;;;;;;5057536;28;44827;-78
2022/09/15 06:54:36;;;;;;;;;;;;;;;;;;5059898;28;45161;-78
2022/09/15 06:57:02;;;;;;;;;;;;;;;;;;5058375;28;44034;-77
2022/09/15 06:59:28;;;;;;;;;;;;;;;;;;5069926;28;46054;-77
2022/09/15 07:01:54;;;;;;;;;;;;;;;;;;5041825;28;47183;-76
2022/09/15 07:04:20;;;;;;;;;;;;;;;;;;5075555;28;41682;-77
2022/09/15 07:06:47;;;;;;;;;;;;;;;;;;5057280;28;47942;-78
2022/09/15 07:09:13;;;;;;;;;;;;;;;;;;5063818;28;47194;-79
2022/09/15 07:11:39;;;;;;;;;;;;;;;;;;5050732;28;42237;-78
2022/09/15 07:14:05;;;;;;;;;;;;;;;;;;5054747;28;48125;-79
2022/09/15 07:16:32;;;;;;;;;;;;;;;;;;5054443;28;48335;-79
2022/09/15 07:19:00;;;;;;;;;;;;;;;;;;5052915;28;47204;-80
2022/09/15 07:21:27;;;;;;;;;;;;;;;;;;5059653;28;47275;-79
2022/09/15 07:23:53;;;;;;;;;;;;;;;;;;5056626;28;42037;-78
2022/09/15 07:26:19;;;;;;;;;;;;;;;;;;5055723;28;46045;-77
2022/09/15 07:28:45;;;;;;;;;;;;;;;;;;5055760;28;48640;-77
2022/09/15 07:31:12;;;;;;;;;;;;;;;;;;5059489;28;41920;-77
2022/09/15 07:33:38;;;;;;;;;;;;;;;;;;5067977;28;45125;-78
2022/09/15 07:36:05;;;;;;;;;;;;;;;;;;5046151;28;47645;-76
2022/09/15 07:38:31;;;;;;;;;;;;;;;;;;5056573;28;45024;-77
2022/09/15 07:40:58;;;;;;;;;;;;;;;;;;5053306;28;47338;-77
2022/09/15 07:43:24;;;;;;;;;;;;;;;;;;5069981;28;44569;-78
2022/09/15 07:45:51;;;;;;;;;;;;;;;;;;5051908;28;47796;-78
2022/09/15 07:48:17;;;;;;;;;;;;;;;;;;5066535;28;48429;-78
2022/09/15 07:50:44;;;;;;;;;;;;;;;;;;5065281;28;42505;-79
2022/09/15 07:53:11;;;;;;;;;;;;;;;;;;5051561;28;47491;-78
2022/09/15 07:55:37;;;;;;;;;;;;;;;;;;5053149;28;47261;-78
2022/09/15 07:58:03;;;;;;;;;;;;;;;;;;5056721;28;43930;-78
2022/09/15 08:00:30;;;;;;;;;;;;;;;;;;5055098;28;46656;-78
2022/09/15 08:02:56;;;;;;;;;;;;;;;;;;5077363;28;42992;-78
2022/09/15 08:05:26;;;;;;;;;;;;;;;;;;5047958;28;48423;-79
2022/09/15 08:07:53;;;;;;;;;;;;;;;;;;5047321;28;46343;-79
2022/09/15 08:10:19;;;;;;;;;;;;;;;;;;5069392;28;41654;-79
2022/09/15 08:12:45;;;;;;;;;;;;;;;;;;5051077;28;47753;-78
2022/09/15 08:15:11;;;;;;;;;;;;;;;;;;5046902;28;48284;-78
2022/09/15 08:17:38;;;;;;;;;;;;;;;;;;5071021;28;41284;-79
2022/09/15 08:20:04;;;;;;;;;;;;;;;;;;5067375;28;46402;-79
2022/09/15 08:22:30;;;;;;;;;;;;;;;;;;5054426;28;47622;-79
2022/09/15 08:24:56;;;;;;;;;;;;;;;;;;5053871;28;47726;-79
2022/09/15 08:27:22;;;;;;;;;;;;;;;;;;5051582;28;47305;-78
2022/09/15 08:29:49;;;;;;;;;;;;;;;;;;5075713;28;42098;-79
2022/09/15 08:32:15;;;;;;;;;;;;;;;;;;5072201;28;45644;-76
2022/09/15 08:34:41;;;;;;;;;;;;;;;;;;5070566;28;47013;-77
2022/09/15 08:37:07;;;;;;;;;;;;;;;;;;5053720;28;44030;-75
2022/09/15 08:39:33;;;;;;;;;;;;;;;;;;5050146;28;47876;-75
2022/09/15 08:42:00;;;;;;;;;;;;;;;;;;5052027;28;45958;-77
2022/09/15 08:44:26;;;;;;;;;;;;;;;;;;5072414;28;45571;-77
2022/09/15 08:46:52;;;;;;;;;;;;;;;;;;5066143;28;47183;-77
2022/09/15 08:49:18;;;;;;;;;;;;;;;;;;5069912;28;43272;-78
2022/09/15 08:52:00;;;;;;;;;;;;;;;;;;5056332;28;47796;-78
2022/09/15 08:54:27;;;;;;;;;;;;;;;;;;5053612;28;44805;-77
2022/09/15 08:56:53;;;;;;;;;;;;;;;;;;5050710;28;45016;-78
2022/09/15 08:59:19;;;;;;;;;;;;;;;;;;5049352;28;44931;-78
2022/09/15 09:01:45;;;;;;;;;;;;;;;;;;5045477;28;44759;-79
2022/09/15 09:04:11;;;;;;;;;;;;;;;;;;5063406;28;43947;-78
2022/09/15 09:06:41;;;;;;;;;;;;;;;;;;5063799;28;46701;-78
2022/09/15 09:09:07;;;;;;;;;;;;;;;;;;5043182;28;43006;-78
2022/09/15 09:11:33;;;;;;;;;;;;;;;;;;5040682;28;46732;-79
2022/09/15 09:14:00;;;;;;;;;;;;;;;;;;5065914;28;46404;-80
2022/09/15 09:16:26;;;;;;;;;;;;;;;;;;5057527;28;42855;-80
2022/09/15 09:18:52;;;;;;;;;;;;;;;;;;5049646;28;47472;-77
2022/09/15 09:21:18;;;;;;;;;;;;;;;;;;5066415;28;47334;-77
2022/09/15 09:23:44;;;;;;;;;;;;;;;;;;5067371;28;45116;-82
2022/09/15 09:26:11;;;;;;;;;;;;;;;;;;5059914;28;44707;-78
2022/09/15 09:28:37;;;;;;;;;;;;;;;;;;5048237;28;44252;-78
2022/09/15 09:31:05;;;;;;;;;;;;;;;;;;5047467;28;47812;-78
2022/09/15 09:33:32;;;;;;;;;;;;;;;;;;5049671;28;46195;-80
2022/09/15 09:35:58;;;;;;;;;;;;;;;;;;5049403;28;45103;-80
2022/09/15 09:38:25;;;;;;;;;;;;;;;;;;5067436;28;46059;-79
2022/09/15 09:40:51;;;;;;;;;;;;;;;;;;5067173;28;46844;-78
2022/09/15 09:43:18;;;;;;;;;;;;;;;;;;5061088;28;44056;-81
2022/09/15 09:45:44;;;;;;;;;;;;;;;;;;5067009;28;45673;-78
2022/09/15 09:48:11;;;;;;;;;;;;;;;;;;5048224;28;46107;-81
2022/09/15 09:50:43;;;;;;;;;;;;;;;;;;5048392;28;46659;-81
2022/09/15 09:53:09;;;;;;;;;;;;;;;;;;5067083;28;46596;-78
2022/09/15 09:55:36;;;;;;;;;;;;;;;;;;5047403;28;44267;-78
2022/09/15 09:58:02;;;;;;;;;;;;;;;;;;5046122;28;46724;-78
2022/09/15 10:00:28;;;;;;;;;;;;;;;;;;5067675;28;48317;-78
2022/09/15 10:02:54;;;;;;;;;;;;;;;;;;5065170;28;44061;-78
2022/09/15 10:05:21;;;;;;;;;;;;;;;;;;5066172;28;47507;-79
2022/09/15 10:07:47;;;;;;;;;;;;;;;;;;5063331;28;48121;-78
2022/09/15 10:10:13;;;;;;;;;;;;;;;;;;5048601;28;44886;-78
2022/09/15 10:12:40;;;;;;;;;;;;;;;;;;5066183;28;47031;-79
2022/09/15 10:15:06;;;;;;;;;;;;;;;;;;5066884;28;42453;-81
2022/09/15 10:17:32;;;;;;;;;;;;;;;;;;5063787;28;46363;-81
2022/09/15 10:19:58;;;;;;;;;;;;;;;;;;5066796;28;47029;-80
2022/09/15 10:22:25;;;;;;;;;;;;;;;;;;5071288;28;42401;-78
2022/09/15 10:24:52;;;;;;;;;;;;;;;;;;5073432;28;44867;-77
2022/09/15 10:27:18;;;;;;;;;;;;;;;;;;5061951;28;47293;-77
2022/09/15 10:29:44;;;;;;;;;;;;;;;;;;5048304;28;45154;-76
2022/09/15 10:32:10;;;;;;;;;;;;;;;;;;5062410;28;44666;-77
2022/09/15 10:34:37;;;;;;;;;;;;;;;;;;5060613;28;43009;-78
2022/09/15 10:37:03;;;;;;;;;;;;;;;;;;5062480;28;44890;-78
2022/09/15 10:39:30;;;;;;;;;;;;;;;;;;5058490;28;48696;-78
2022/09/15 10:41:56;;;;;;;;;;;;;;;;;;5054491;28;42036;-78
2022/09/15 10:44:22;;;;;;;;;;;;;;;;;;5061423;28;45263;-78
2022/09/15 10:46:48;;;;;;;;;;;;;;;;;;5063771;28;45926;-78
2022/09/15 10:49:15;;;;;;;;;;;;;;;;;;5057086;28;41926;-78
2022/09/15 10:51:41;;;;;;;;;;;;;;;;;;5061793;28;44729;-78
2022/09/15 10:54:08;;;;;;;;;;;;;;;;;;5080340;28;33241;-79
2022/09/15 10:56:34;;;;;;;;;;;;;;;;;;5063012;28;44782;-78
2022/09/15 10:59:02;;;;;;;;;;;;;;;;;;5063692;28;46433;-79
2022/09/15 11:01:31;;;;;;;;;;;;;;;;;;5060793;28;41912;-78
2022/09/15 11:03:59;;;;;;;;;;;;;;;;;;5065162;28;46618;-79
2022/09/15 11:06:25;;;;;;;;;;;;;;;;;;5084673;28;45214;-78
2022/09/15 11:08:51;;;;;;;;;;;;;;;;;;5063200;28;42100;-76
2022/09/15 11:11:17;;;;;;;;;;;;;;;;;;5043401;28;47550;-76
2022/09/15 11:13:44;;;;;;;;;;;;;;;;;;5066909;28;47429;-76
2022/09/15 11:16:10;;;;;;;;;;;;;;;;;;5064421;28;48263;-79
2022/09/15 11:18:36;;;;;;;;;;;;;;;;;;5063047;28;45660;-79
2022/09/15 11:21:03;;;;;;;;;;;;;;;;;;5061651;28;43591;-79
2022/09/15 11:23:31;;;;;;;;;;;;;;;;;;5063069;28;46374;-79
2022/09/15 11:25:57;;;;;;;;;;;;;;;;;;5083070;28;45700;-79
2022/09/15 11:28:23;;;;;;;;;;;;;;;;;;5063865;28;43846;-79
2022/09/15 11:30:50;;;;;;;;;;;;;;;;;;5063614;28;45152;-79
2022/09/15 11:33:16;;;;;;;;;;;;;;;;;;5046202;28;45988;-79
2022/09/15 11:35:42;;;;;;;;;;;;;;;;;;5055551;28;41885;-79
2022/09/15 11:38:09;;;;;;;;;;;;;;;;;;5060655;28;46230;-79
2022/09/15 11:40:38;;;;;;;;;;;;;;;;;;5061960;28;42282;-79
2022/09/15 11:43:04;;;;;;;;;;;;;;;;;;5061737;28;46732;-79
2022/09/15 11:45:30;;;;;;;;;;;;;;;;;;5062546;28;46253;-79
2022/09/15 11:47:56;;;;;;;;;;;;;;;;;;5081516;28;42574;-79
2022/09/15 11:50:22;;;;;;;;;;;;;;;;;;5045649;28;46348;-79
2022/09/15 11:52:49;;;;;;;;;;;;;;;;;;5058003;28;46313;-78
2022/09/15 11:55:15;;;;;;;;;;;;;;;;;;5060839;28;41735;-79
2022/09/15 11:57:42;;;;;;;;;;;;;;;;;;5051895;28;46354;-79
2022/09/15 12:00:08;;;;;;;;;;;;;;;;;;5049793;28;41969;-80
2022/09/15 12:02:34;;;;;;;;;;;;;;;;;;5073771;28;46523;-80
2022/09/15 12:05:01;;;;;;;;;;;;;;;;;;5069606;28;46862;-80
2022/09/15 12:07:27;;;;;;;;;;;;;;;;;;5070392;28;42304;-80
2022/09/15 12:09:54;;;;;;;;;;;;;;;;;;5073532;28;47293;-80
2022/09/15 12:12:20;;;;;;;;;;;;;;;;;;5076632;28;47276;-80
2022/09/15 12:14:46;;;;;;;;;;;;;;;;;;5060948;28;45429;-83
2022/09/15 12:17:13;;;;;;;;;;;;;;;;;;5055266;28;45388;-83
2022/09/15 12:19:39;;;;;;;;;;;;;;;;;;5051020;28;45832;-83
2022/09/15 12:22:05;;;;;;;;;;;;;;;;;;5051997;28;46622;-82
2022/09/15 12:24:32;;;;;;;;;;;;;;;;;;5072069;28;44534;-82
2022/09/15 12:26:58;;;;;;;;;;;;;;;;;;5050734;28;43799;-81
2022/09/15 12:29:25;;;;;;;;;;;;;;;;;;5062781;28;46767;-81
2022/09/15 12:31:51;;;;;;;;;;;;;;;;;;5064548;28;47755;-82
2022/09/15 12:34:17;;;;;;;;;;;;;;;;;;5065302;28;43743;-81
2022/09/15 12:36:43;;;;;;;;;;;;;;;;;;5080165;28;45915;-80
2022/09/15 12:39:09;;;;;;;;;;;;;;;;;;5066938;28;47105;-80
2022/09/15 12:41:36;;;;;;;;;;;;;;;;;;5049962;28;42200;-80
2022/09/15 12:44:02;;;;;;;;;;;;;;;;;;5047908;28;45069;-81
2022/09/15 12:46:28;;;;;;;;;;;;;;;;;;5045746;28;42526;-80
2022/09/15 12:48:55;;;;;;;;;;;;;;;;;;5063310;28;47543;-80
2022/09/15 12:51:25;;;;;;;;;;;;;;;;;;5066550;28;48238;-79
2022/09/15 12:53:51;;;;;;;;;;;;;;;;;;5068667;28;45163;-79
2022/09/15 12:56:17;;;;;;;;;;;;;;;;;;5047051;28;44858;-79
2022/09/15 12:58:43;;;;;;;;;;;;;;;;;;5073139;28;46149;-79
2022/09/15 13:01:10;;;;;;;;;;;;;;;;;;5070711;28;45014;-79
2022/09/15 13:03:44;;;;;;;;;;;;;;;;;;5072974;28;47550;-78
2022/09/15 13:06:10;;;;;;;;;;;;;;;;;;5056808;28;42880;-78
2022/09/15 13:08:36;;;;;;;;;;;;;;;;;;5058265;28;47770;-78
2022/09/15 13:11:02;;;;;;;;;;;;;;;;;;5060512;28;47329;-79
2022/09/15 13:13:29;;;;;;;;;;;;;;;;;;5064106;28;42157;-77
2022/09/15 13:15:57;;;;;;;;;;;;;;;;;;5057008;28;46066;-77
2022/09/15 13:18:24;;;;;;;;;;;;;;;;;;5051405;28;47063;-80
2022/09/15 13:20:50;;;;;;;;;;;;;;;;;;5081941;28;43849;-77
2022/09/15 13:23:20;;;;;;;;;;;;;;;;;;5060761;28;45389;-77
2022/09/15 13:25:46;;;;;;;;;;;;;;;;;;5060090;28;42939;-77
2022/09/15 13:28:13;;;;;;;;;;;;;;;;;;5056356;28;46231;-78
2022/09/15 13:30:40;;;;;;;;;;;;;;;;;;5057740;28;19939;-78
2022/09/15 13:33:07;;;;;;;;;;;;;;;;;;5054527;28;43722;-78
2022/09/15 13:35:33;;;;;;;;;;;;;;;;;;5055160;28;47779;-80
2022/09/15 13:37:59;;;;;;;;;;;;;;;;;;5056482;28;46817;-79
2022/09/15 13:40:39;;;;;;;;;;;;;;;;;;5053781;28;45038;-78
2022/09/15 13:43:05;;;;;;;;;;;;;;;;;;5058346;28;45324;-78
2022/09/15 13:45:31;;;;;;;;;;;;;;;;;;5070336;28;46230;-79
2022/09/15 13:47:57;;;;;;;;;;;;;;;;;;5065167;28;46620;-80
2022/09/15 13:50:23;;;;;;;;;;;;;;;;;;5066479;28;48327;-79
2022/09/15 13:52:49;;;;;;;;;;;;;;;;;;5068285;28;44697;-79
2022/09/15 13:55:17;;;;;;;;;;;;;;;;;;5048108;28;47190;-79
2022/09/15 13:57:43;;;;;;;;;;;;;;;;;;5066359;28;48072;-78
2022/09/15 14:00:30;;;;;;;;;;;;;;;;;;5050967;28;19937;-79
2022/09/15 14:02:56;;;;;;;;;;;;;;;;;;5068177;28;44701;-79
2022/09/15 14:05:22;;;;;;;;;;;;;;;;;;5045327;28;46169;-78
2022/09/15 14:07:49;;;;;;;;;;;;;;;;;;5067727;28;44073;-78
2022/09/15 14:10:17;;;;;;;;;;;;;;;;;;5068257;28;46568;-79
2022/09/15 14:12:44;;;;;;;;;;;;;;;;;;5061541;28;45109;-78
2022/09/15 14:15:13;;;;;;;;;;;;;;;;;;5059336;28;45632;-79
2022/09/15 14:17:39;;;;;;;;;;;;;;;;;;5070248;28;44680;-79
2022/09/15 14:20:07;;;;;;;;;;;;;;;;;;5063788;28;41616;-78
2022/09/15 14:22:34;;;;;;;;;;;;;;;;;;5045194;28;45183;-79
2022/09/15 14:25:00;;;;;;;;;;;;;;;;;;5068321;28;47242;-79
2022/09/15 14:27:26;;;;;;;;;;;;;;;;;;5067005;28;44028;-80
2022/09/15 14:29:56;;;;;;;;;;;;;;;;;;5053013;28;34796;-80
2022/09/15 14:32:22;;;;;;;;;;;;;;;;;;5070297;28;40811;-81
2022/09/15 14:34:49;;;;;;;;;;;;;;;;;;5056453;28;47846;-82
2022/09/15 14:37:15;;;;;;;;;;;;;;;;;;5073891;28;47190;-83
2022/09/15 14:39:42;;;;;;;;;;;;;;;;;;5041126;28;46091;-83
2022/09/15 14:42:08;;;;;;;;;;;;;;;;;;5040015;28;45998;-82
2022/09/15 14:44:34;;;;;;;;;;;;;;;;;;5050744;28;45151;-81
2022/09/15 14:47:21;;;;;;;;;;;;;;;;;;5052101;28;20781;-82
2022/09/15 14:49:47;;;;;;;;;;;;;;;;;;5070835;28;46611;-79
2022/09/15 14:52:13;;;;;;;;;;;;;;;;;;5057885;28;48407;-80
2022/09/15 14:54:39;;;;;;;;;;;;;;;;;;5051325;28;46688;-81
2022/09/15 14:57:05;;;;;;;;;;;;;;;;;;5051252;28;48338;-81
2022/09/15 14:59:32;;;;;;;;;;;;;;;;;;5050886;28;43884;-81
2022/09/15 15:01:58;;;;;;;;;;;;;;;;;;5048634;28;47826;-81
2022/09/15 15:04:24;;;;;;;;;;;;;;;;;;5049946;28;47996;-81
2022/09/15 15:06:50;;;;;;;;;;;;;;;;;;5065340;28;45335;-81
2022/09/15 15:09:17;;;;;;;;;;;;;;;;;;5057387;28;47831;-81
2022/09/15 15:11:43;;;;;;;;;;;;;;;;;;5039933;28;47164;-81
2022/09/15 15:14:10;;;;;;;;;;;;;;;;;;5069639;28;44281;-81
2022/09/15 15:16:36;;;;;;;;;;;;;;;;;;5046909;28;48426;-81
2022/09/15 15:19:03;;;;;;;;;;;;;;;;;;5068768;28;45287;-81
2022/09/15 15:21:30;;;;;;;;;;;;;;;;;;5070209;28;45107;-81
2022/09/15 15:23:56;;;;;;;;;;;;;;;;;;5051818;28;47138;-81
2022/09/15 15:26:22;;;;;;;;;;;;;;;;;;5038985;28;44927;-80
2022/09/15 15:28:48;;;;;;;;;;;;;;;;;;5060054;28;46686;-79
2022/09/15 15:31:15;;;;;;;;;;;;;;;;;;5064731;28;48467;-79
2022/09/15 15:33:41;;;;;;;;;;;;;;;;;;5063771;28;43363;-80
2022/09/15 15:36:07;;;;;;;;;;;;;;;;;;5066091;28;47633;-80
2022/09/15 15:38:33;;;;;;;;;;;;;;;;;;5049151;28;45260;-79
2022/09/15 15:41:00;;;;;;;;;;;;;;;;;;5044693;28;45258;-79
2022/09/15 15:43:27;;;;;;;;;;;;;;;;;;5040152;28;47285;-80
2022/09/15 15:45:56;;;;;;;;;;;;;;;;;;5062317;28;45475;-79
2022/09/15 15:48:23;;;;;;;;;;;;;;;;;;5067801;28;44456;-79
2022/09/15 15:50:50;;;;;;;;;;;;;;;;;;5039421;28;48031;-80
2022/09/15 15:53:17;;;;;;;;;;;;;;;;;;5060254;28;46876;-79
2022/09/15 15:55:43;;;;;;;;;;;;;;;;;;5066648;28;45282;-79
2022/09/15 15:58:09;;;;;;;;;;;;;;;;;;5045262;28;44532;-80
2022/09/15 16:00:36;;;;;;;;;;;;;;;;;;5049571;28;48056;-80
2022/09/15 16:03:03;;;;;;;;;;;;;;;;;;5047720;28;48201;-80
2022/09/15 16:05:30;;;;;;;;;;;;;;;;;;5048744;28;42986;-79
2022/09/15 16:07:56;;;;;;;;;;;;;;;;;;5065996;28;47778;-80
2022/09/15 16:10:22;;;;;;;;;;;;;;;;;;5046958;28;48282;-79
2022/09/15 16:12:48;;;;;;;;;;;;;;;;;;5067449;28;42703;-79
2022/09/15 16:15:15;;;;;;;;;;;;;;;;;;5048769;28;47977;-79
2022/09/15 16:17:41;;;;;;;;;;;;;;;;;;5065784;28;46889;-80
2022/09/15 16:20:11;;;;;;;;;;;;;;;;;;5047120;28;45104;-79
2022/09/15 16:22:39;;;;;;;;;;;;;;;;;;5031477;28;46930;-80
2022/09/15 16:25:05;;;;;;;;;;;;;;;;;;5063911;28;45116;-79
2022/09/15 16:27:31;;;;;;;;;;;;;;;;;;5067500;28;45551;-80
2022/09/15 16:29:57;;;;;;;;;;;;;;;;;;5049011;28;45585;-80
2022/09/15 16:32:24;;;;;;;;;;;;;;;;;;5065807;28;42966;-80
2022/09/15 16:34:52;;;;;;;;;;;;;;;;;;5065934;28;45009;-80
2022/09/15 16:37:20;;;;;;;;;;;;;;;;;;5063976;28;47159;-80
2022/09/15 16:39:47;;;;;;;;;;;;;;;;;;5033844;28;45039;-80
2022/09/15 16:42:13;;;;;;;;;;;;;;;;;;5051341;28;47179;-80
2022/09/15 16:44:39;;;;;;;;;;;;;;;;;;5052982;28;44406;-79